KBIL/BIL METAR and TAF weather

Enter ICAO airport designator
Station Type Date Time Source
KBIL METAR 2022/12/04 10:53 UTC NOAA

KBIL 041053Z 23015KT 10SM FEW200 M06/M13 A3005 RMK AO2 SLP212 T10611133


Station Type Date Time Source
KBIL Decoded METAR 2022/12/04 10:53 UTC NOAA

LOGAN INTERNATIONAL AIRPORT, MT, United States (KBIL) 45-49N 108-33W 1091M
Dec 04, 2022 - 05:53 AM EST / 2022.12.04 1053 UTC
Wind: from the SW (230 degrees) at 17 MPH (15 KT):0
Visibility: 10 mile(s):0
Sky conditions: mostly clear
Temperature: 21.0 F (-6.1 C)
Windchill: 6 F (-14 C):1
Dew Point: 8.1 F (-13.3 C)
Relative Humidity: 56%
Pressure (altimeter): 30.05 in. Hg (1017 hPa)
ob: KBIL 041053Z 23015KT 10SM FEW200 M06/M13 A3005 RMK AO2 SLP212 T10611133
cycle: 11

Station Type Date Time Source
KBIL TAF 2022/12/04 06:27 UTC NOAA

TAF KBIL 040524Z 0406/0506 23014KT P6SM SCT200
FM042000 23014KT P6SM SCT100 BKN200
FM050200 23012KT P6SM VCSH BKN100

Example: see airport list